createdAt,value
2017-05-15T00:00:44.466Z,977.04
2017-05-15T00:01:49.430Z,977.07
2017-05-15T00:02:51.789Z,977.07
2017-05-15T00:03:54.150Z,977.10
2017-05-15T00:04:56.506Z,977.09
2017-05-15T00:05:58.879Z,977.10
2017-05-15T00:07:01.792Z,977.10
2017-05-15T00:08:04.133Z,977.13
2017-05-15T00:09:06.506Z,977.16
2017-05-15T00:10:08.860Z,977.16
2017-05-15T00:11:11.229Z,977.16
2017-05-15T00:12:14.186Z,977.17
2017-05-15T00:13:16.548Z,977.16
2017-05-15T00:14:18.902Z,977.15
2017-05-15T00:15:21.269Z,977.18
2017-05-15T00:16:23.633Z,977.22
2017-05-15T00:17:26.642Z,977.20
2017-05-15T00:18:28.989Z,977.18
2017-05-15T00:19:31.347Z,977.23
2017-05-15T00:20:33.711Z,977.24
2017-05-15T00:21:36.071Z,977.23
2017-05-15T00:22:39.024Z,977.23
2017-05-15T00:23:41.382Z,977.27
2017-05-15T00:24:43.745Z,977.28
2017-05-15T00:25:46.100Z,977.29
2017-05-15T00:26:48.461Z,977.29
2017-05-15T00:27:51.373Z,977.31
2017-05-15T00:28:53.729Z,977.35
2017-05-15T00:29:56.090Z,977.34
2017-05-15T00:30:58.459Z,977.35
2017-05-15T00:32:00.816Z,977.33
2017-05-15T00:33:03.775Z,977.35
2017-05-15T00:34:06.151Z,977.31
2017-05-15T00:35:08.504Z,977.30
2017-05-15T00:36:10.864Z,977.32
2017-05-15T00:37:13.218Z,977.32
2017-05-15T00:38:16.185Z,977.38
2017-05-15T00:39:18.536Z,977.36
2017-05-15T00:40:20.893Z,977.40
2017-05-15T00:41:23.260Z,977.43
2017-05-15T00:42:25.628Z,977.42
2017-05-15T00:43:28.577Z,977.47
2017-05-15T00:44:30.950Z,977.46
2017-05-15T00:45:33.292Z,977.45
2017-05-15T00:46:35.655Z,977.47
2017-05-15T00:47:38.015Z,977.47
2017-05-15T00:48:40.977Z,977.48
2017-05-15T00:49:43.329Z,977.48
2017-05-15T00:50:45.684Z,977.47
2017-05-15T00:51:48.053Z,977.48
2017-05-15T00:52:50.407Z,977.49
2017-05-15T00:53:53.373Z,977.51
2017-05-15T00:54:55.736Z,977.51
2017-05-15T00:55:58.094Z,977.55
2017-05-15T00:57:00.451Z,977.56
2017-05-15T00:58:02.812Z,977.57
2017-05-15T00:59:05.776Z,977.58
2017-05-15T01:00:08.140Z,977.59
2017-05-15T01:01:10.498Z,977.55
2017-05-15T01:02:12.856Z,977.54
2017-05-15T01:03:15.212Z,977.53
2017-05-15T01:04:18.187Z,977.55
2017-05-15T01:05:20.552Z,977.56
2017-05-15T01:06:22.913Z,977.55
2017-05-15T01:07:25.472Z,977.59
2017-05-15T01:08:27.833Z,977.65
2017-05-15T01:09:30.797Z,977.62
2017-05-15T01:10:33.157Z,977.63
2017-05-15T01:11:35.522Z,977.66
2017-05-15T01:12:37.869Z,977.67
2017-05-15T01:13:40.231Z,977.68
2017-05-15T01:14:43.137Z,977.67
2017-05-15T01:15:45.503Z,977.68
2017-05-15T01:16:47.861Z,977.70
2017-05-15T01:17:50.230Z,977.68
2017-05-15T01:18:52.588Z,977.71
2017-05-15T01:19:55.552Z,977.68
2017-05-15T01:20:57.910Z,977.67
2017-05-15T01:22:00.273Z,977.73
2017-05-15T01:23:02.629Z,977.70
2017-05-15T01:24:05.000Z,977.72
2017-05-15T01:25:07.966Z,977.71
2017-05-15T01:26:10.324Z,977.75
2017-05-15T01:27:12.694Z,977.74
2017-05-15T01:28:15.046Z,977.75
2017-05-15T01:29:17.620Z,977.74
2017-05-15T01:30:20.583Z,977.78
2017-05-15T01:31:22.947Z,977.79
2017-05-15T01:32:25.308Z,977.76
2017-05-15T01:33:27.676Z,977.82
2017-05-15T01:34:30.030Z,977.79
2017-05-15T01:35:32.990Z,977.77
2017-05-15T01:36:35.345Z,977.84
2017-05-15T01:37:37.714Z,977.82
2017-05-15T01:38:40.075Z,977.82
2017-05-15T01:39:42.432Z,977.86
2017-05-15T01:40:45.352Z,977.78
2017-05-15T01:41:47.704Z,977.80
2017-05-15T01:42:50.079Z,977.83
2017-05-15T01:43:52.429Z,977.86
2017-05-15T01:44:54.789Z,977.84
2017-05-15T01:45:57.704Z,977.81
2017-05-15T01:47:00.077Z,977.80
2017-05-15T01:48:02.428Z,977.81
2017-05-15T01:49:04.794Z,977.84
2017-05-15T01:50:07.151Z,977.89
2017-05-15T01:51:10.063Z,977.88
2017-05-15T01:52:12.424Z,977.91
2017-05-15T01:53:14.786Z,977.93
2017-05-15T01:54:17.154Z,977.93
2017-05-15T01:55:19.514Z,977.93
2017-05-15T01:56:22.432Z,977.95
2017-05-15T01:57:24.784Z,977.90
2017-05-15T01:58:27.142Z,977.93
2017-05-15T01:59:29.500Z,977.94
2017-05-15T02:00:31.863Z,977.94
2017-05-15T02:01:34.825Z,977.96
2017-05-15T02:02:37.199Z,977.97
2017-05-15T02:03:39.566Z,977.99
2017-05-15T02:04:41.923Z,978.03
2017-05-15T02:05:44.280Z,978.04
2017-05-15T02:06:47.188Z,978.08
2017-05-15T02:07:49.549Z,978.08
2017-05-15T02:08:51.910Z,978.03
2017-05-15T02:09:54.269Z,978.07
2017-05-15T02:10:56.679Z,978.12
2017-05-15T02:11:59.537Z,978.09
2017-05-15T02:13:01.910Z,978.11
2017-05-15T02:14:04.271Z,978.12
2017-05-15T02:15:06.627Z,978.12
2017-05-15T02:16:08.996Z,978.16
2017-05-15T02:17:11.914Z,978.20
2017-05-15T02:18:14.278Z,978.22
2017-05-15T02:19:16.631Z,978.22
2017-05-15T02:20:18.992Z,978.26
2017-05-15T02:21:21.357Z,978.27
2017-05-15T02:22:26.224Z,978.29
2017-05-15T02:23:28.577Z,978.28
2017-05-15T02:24:30.931Z,978.28
2017-05-15T02:25:33.295Z,978.28
2017-05-15T02:26:35.656Z,978.28
2017-05-15T02:27:38.724Z,978.31
2017-05-15T02:28:41.079Z,978.31
2017-05-15T02:29:43.439Z,978.30
2017-05-15T02:30:45.794Z,978.36
2017-05-15T02:31:48.159Z,978.34
2017-05-15T02:32:51.077Z,978.37
2017-05-15T02:33:53.425Z,978.39
2017-05-15T02:34:55.786Z,978.37
2017-05-15T02:35:58.150Z,978.38
2017-05-15T02:37:00.517Z,978.40
2017-05-15T02:38:03.419Z,978.41
2017-05-15T02:39:05.785Z,978.40
2017-05-15T02:40:08.133Z,978.37
2017-05-15T02:41:10.492Z,978.37
2017-05-15T02:42:12.857Z,978.37
2017-05-15T02:43:15.828Z,978.40
2017-05-15T02:44:18.187Z,978.37
2017-05-15T02:45:20.555Z,978.41
2017-05-15T02:46:22.912Z,978.45
2017-05-15T02:47:25.284Z,978.45
2017-05-15T02:48:28.188Z,978.46
2017-05-15T02:49:30.557Z,978.46
2017-05-15T02:50:32.937Z,978.45
2017-05-15T02:51:35.299Z,978.46
2017-05-15T02:52:37.661Z,978.46
2017-05-15T02:53:40.636Z,978.50
2017-05-15T02:54:42.985Z,978.51
2017-05-15T02:55:45.343Z,978.49
2017-05-15T02:56:47.706Z,978.50
2017-05-15T02:57:50.068Z,978.51
2017-05-15T02:58:53.028Z,978.51
2017-05-15T02:59:55.392Z,978.49
2017-05-15T03:00:57.756Z,978.54
2017-05-15T03:02:00.132Z,978.51
2017-05-15T03:03:02.488Z,978.55
2017-05-15T03:04:05.401Z,978.55
2017-05-15T03:05:07.755Z,978.58
2017-05-15T03:06:10.111Z,978.60
2017-05-15T03:07:12.471Z,978.56
2017-05-15T03:08:15.035Z,978.60
2017-05-15T03:09:17.991Z,978.58
2017-05-15T03:10:20.351Z,978.60
2017-05-15T03:11:22.720Z,978.58
2017-05-15T03:12:25.079Z,978.60
2017-05-15T03:13:27.442Z,978.61
2017-05-15T03:14:30.409Z,978.59
2017-05-15T03:15:32.774Z,978.62
2017-05-15T03:16:35.145Z,978.63
2017-05-15T03:17:37.508Z,978.57
2017-05-15T03:18:39.869Z,978.63
2017-05-15T03:19:42.829Z,978.63
2017-05-15T03:20:45.197Z,978.61
2017-05-15T03:21:47.551Z,978.60
2017-05-15T03:22:50.110Z,978.63
2017-05-15T03:23:52.475Z,978.65
2017-05-15T03:24:55.445Z,978.64
2017-05-15T03:25:57.795Z,978.63
2017-05-15T03:27:00.155Z,978.65
2017-05-15T03:28:02.521Z,978.61
2017-05-15T03:29:04.884Z,978.59
2017-05-15T03:30:07.842Z,978.58
2017-05-15T03:31:10.203Z,978.59
2017-05-15T03:32:12.555Z,978.62
2017-05-15T03:33:14.911Z,978.61
2017-05-15T03:34:17.276Z,978.62
2017-05-15T03:35:20.241Z,978.65
2017-05-15T03:36:22.605Z,978.65
2017-05-15T03:37:24.964Z,978.61
2017-05-15T03:38:27.326Z,978.61
2017-05-15T03:39:29.686Z,978.62
2017-05-15T03:40:32.651Z,978.60
2017-05-15T03:41:35.022Z,978.63
2017-05-15T03:42:37.375Z,978.60
2017-05-15T03:43:39.741Z,978.64
2017-05-15T03:44:42.113Z,978.61
2017-05-15T03:45:45.071Z,978.69
2017-05-15T03:46:47.433Z,978.67
2017-05-15T03:47:49.796Z,978.68
2017-05-15T03:48:52.162Z,978.72
2017-05-15T03:49:54.554Z,978.69
2017-05-15T03:50:57.481Z,978.71
2017-05-15T03:51:59.835Z,978.74
2017-05-15T03:53:02.190Z,978.73
2017-05-15T03:54:04.559Z,978.74
2017-05-15T03:55:07.123Z,978.72
2017-05-15T03:56:10.089Z,978.75
2017-05-15T03:57:12.443Z,978.74
2017-05-15T03:58:14.791Z,978.72
2017-05-15T03:59:17.165Z,978.74
2017-05-15T04:00:19.519Z,978.77
2017-05-15T04:01:22.484Z,978.74
2017-05-15T04:02:24.837Z,978.77
2017-05-15T04:03:27.193Z,978.79
2017-05-15T04:04:29.547Z,978.78
2017-05-15T04:05:31.916Z,978.80
2017-05-15T04:06:34.872Z,978.80
2017-05-15T04:07:37.231Z,978.84
2017-05-15T04:08:39.628Z,978.82
2017-05-15T04:09:41.940Z,978.89
2017-05-15T04:10:44.297Z,978.84
2017-05-15T04:11:47.261Z,978.84
2017-05-15T04:12:49.614Z,978.83
2017-05-15T04:13:51.981Z,978.86
2017-05-15T04:14:54.341Z,978.84
2017-05-15T04:15:56.697Z,978.87
2017-05-15T04:16:59.660Z,978.89
2017-05-15T04:18:02.015Z,978.86
2017-05-15T04:19:04.375Z,978.87
2017-05-15T04:20:06.738Z,978.86
2017-05-15T04:21:09.100Z,978.83
2017-05-15T04:22:12.008Z,978.87
2017-05-15T04:23:14.378Z,978.88
2017-05-15T04:24:16.734Z,978.87
2017-05-15T04:25:19.096Z,978.89
2017-05-15T04:26:21.452Z,978.88
2017-05-15T04:27:24.412Z,978.87
2017-05-15T04:28:26.775Z,978.92
2017-05-15T04:29:29.129Z,978.91
2017-05-15T04:30:31.485Z,978.86
2017-05-15T04:31:33.843Z,978.87
2017-05-15T04:32:36.745Z,978.83
2017-05-15T04:33:39.105Z,978.87
2017-05-15T04:34:41.470Z,978.85
2017-05-15T04:35:43.826Z,978.90
2017-05-15T04:36:46.190Z,978.92
2017-05-15T04:37:49.100Z,978.90
2017-05-15T04:38:51.449Z,978.89
2017-05-15T04:39:53.813Z,978.92
2017-05-15T04:40:56.173Z,978.90
2017-05-15T04:41:58.531Z,978.90
2017-05-15T04:43:01.443Z,978.87
2017-05-15T04:44:03.801Z,978.90
2017-05-15T04:45:06.162Z,978.89
2017-05-15T04:46:08.522Z,978.86
2017-05-15T04:47:10.868Z,978.89
2017-05-15T04:48:13.841Z,978.88
2017-05-15T04:49:16.197Z,978.85
2017-05-15T04:50:18.561Z,978.84
2017-05-15T04:51:20.976Z,978.83
2017-05-15T04:52:23.288Z,978.84
2017-05-15T04:53:26.254Z,978.83
2017-05-15T04:54:28.607Z,978.82
2017-05-15T04:55:30.961Z,978.78
2017-05-15T04:56:33.318Z,978.77
2017-05-15T04:57:35.679Z,978.82
2017-05-15T04:58:38.639Z,978.78
2017-05-15T04:59:41.001Z,978.79
2017-05-15T05:00:43.360Z,978.81
2017-05-15T05:01:45.721Z,978.77
2017-05-15T05:02:48.078Z,978.78
2017-05-15T05:06:45.419Z,978.73
2017-05-15T05:07:47.797Z,978.71
2017-05-15T05:08:50.169Z,978.69
2017-05-15T05:09:53.095Z,978.70
2017-05-15T05:10:55.465Z,978.69
2017-05-15T05:11:57.837Z,978.72
2017-05-15T05:13:00.209Z,978.74
2017-05-15T05:14:02.581Z,978.71
2017-05-15T05:15:05.550Z,978.69
2017-05-15T05:16:07.933Z,978.70
2017-05-15T05:17:10.307Z,978.68
2017-05-15T05:18:12.663Z,978.74
2017-05-15T05:19:15.043Z,978.68
2017-05-15T05:20:18.017Z,978.68
2017-05-15T05:21:20.398Z,978.63
2017-05-15T05:22:22.767Z,978.67
2017-05-15T05:23:25.139Z,978.65
2017-05-15T05:24:27.515Z,978.67
2017-05-15T05:25:30.482Z,978.67
2017-05-15T05:26:32.851Z,978.62
2017-05-15T05:27:35.224Z,978.64
2017-05-15T05:28:37.586Z,978.61
2017-05-15T05:29:39.960Z,978.63
2017-05-15T05:30:42.885Z,978.66
2017-05-15T05:31:45.261Z,978.65
2017-05-15T05:32:47.628Z,978.64
2017-05-15T05:33:50.004Z,978.66
2017-05-15T05:34:52.377Z,978.69
2017-05-15T05:35:55.354Z,978.67
2017-05-15T05:36:57.719Z,978.63
2017-05-15T05:38:00.088Z,978.63
2017-05-15T05:39:02.462Z,978.61
2017-05-15T05:40:04.831Z,978.65
2017-05-15T05:41:07.758Z,978.63
2017-05-15T05:42:10.125Z,978.63
2017-05-15T05:43:12.490Z,978.63
2017-05-15T05:44:14.873Z,978.64
2017-05-15T05:45:17.239Z,978.64
2017-05-15T05:46:20.160Z,978.65
2017-05-15T05:47:22.530Z,978.64
2017-05-15T05:48:24.891Z,978.63
2017-05-15T05:49:27.269Z,978.68
2017-05-15T05:50:29.638Z,978.63
2017-05-15T05:51:32.604Z,978.65
2017-05-15T05:52:34.981Z,978.62
2017-05-15T05:53:37.338Z,978.59
2017-05-15T05:54:39.708Z,978.62
2017-05-15T05:55:42.078Z,978.61
2017-05-15T05:56:45.041Z,978.62
2017-05-15T05:57:47.418Z,978.60
2017-05-15T05:58:49.790Z,978.52
2017-05-15T05:59:52.157Z,978.54
2017-05-15T06:00:54.522Z,978.58
2017-05-15T06:01:57.446Z,978.54
2017-05-15T06:02:59.816Z,978.51
2017-05-15T06:04:02.184Z,978.50
2017-05-15T06:05:04.555Z,978.49
2017-05-15T06:06:06.930Z,978.49
2017-05-15T06:07:09.845Z,978.48
2017-05-15T06:08:12.215Z,978.47
2017-05-15T06:09:14.586Z,978.47
2017-05-15T06:10:16.957Z,978.50
2017-05-15T06:11:19.326Z,978.49
2017-05-15T06:12:22.295Z,978.50
2017-05-15T06:13:24.668Z,978.51
2017-05-15T06:14:27.050Z,978.46
2017-05-15T06:15:29.416Z,978.51
2017-05-15T06:16:31.779Z,978.47
2017-05-15T06:17:34.752Z,978.47
2017-05-15T06:18:37.117Z,978.46
2017-05-15T06:19:39.491Z,978.48
2017-05-15T06:20:41.868Z,978.47
2017-05-15T06:21:44.234Z,978.46
2017-05-15T06:22:47.147Z,978.44
2017-05-15T06:23:49.516Z,978.44
2017-05-15T06:24:51.884Z,978.40
2017-05-15T06:25:54.248Z,978.42
2017-05-15T06:26:56.623Z,978.38
2017-05-15T06:27:59.594Z,978.35
2017-05-15T06:29:01.961Z,978.33
2017-05-15T06:30:04.334Z,978.33
2017-05-15T06:31:06.697Z,978.26
2017-05-15T06:32:09.068Z,978.31
2017-05-15T06:33:12.041Z,978.26
2017-05-15T06:34:14.401Z,978.33
2017-05-15T06:35:16.777Z,978.30
2017-05-15T06:36:19.152Z,978.27
2017-05-15T06:37:21.529Z,978.27
2017-05-15T06:38:24.496Z,978.24
2017-05-15T06:39:26.869Z,978.27
2017-05-15T06:40:29.235Z,978.29
2017-05-15T06:41:31.599Z,978.24
2017-05-15T06:42:33.975Z,978.26
2017-05-15T06:43:36.943Z,978.23
2017-05-15T06:44:39.324Z,978.21
2017-05-15T06:45:41.687Z,978.24
2017-05-15T06:46:44.052Z,978.24
2017-05-15T06:47:46.432Z,978.19
2017-05-15T06:48:49.400Z,978.18
2017-05-15T06:49:51.771Z,978.18
2017-05-15T06:50:54.155Z,978.20
2017-05-15T06:51:56.516Z,978.21
2017-05-15T06:52:58.891Z,978.18
2017-05-15T06:54:01.857Z,978.17
2017-05-15T06:55:04.230Z,978.17
2017-05-15T06:56:06.602Z,978.16
2017-05-15T06:57:08.980Z,978.14
2017-05-15T06:58:11.345Z,978.11
2017-05-15T06:59:14.318Z,978.10
2017-05-15T07:00:16.686Z,978.08
2017-05-15T07:01:19.056Z,978.11
2017-05-15T07:02:21.423Z,978.11
2017-05-15T07:03:23.794Z,978.11
2017-05-15T07:04:26.718Z,978.09
2017-05-15T07:05:29.082Z,978.08
2017-05-15T07:06:31.462Z,978.11
2017-05-15T07:07:33.824Z,978.10
2017-05-15T07:08:36.195Z,978.11
2017-05-15T07:09:39.114Z,978.11
2017-05-15T07:10:41.476Z,978.11
2017-05-15T07:11:43.850Z,978.07
2017-05-15T07:12:46.230Z,978.09
2017-05-15T07:13:48.608Z,978.07
2017-05-15T07:14:51.523Z,978.06
2017-05-15T07:15:53.895Z,978.01
2017-05-15T07:16:56.265Z,977.98
2017-05-15T07:17:58.631Z,977.98
2017-05-15T07:19:01.004Z,977.96
2017-05-15T07:20:03.975Z,977.97
2017-05-15T07:21:06.342Z,977.96
2017-05-15T07:22:08.712Z,977.96
2017-05-15T07:23:11.087Z,977.95
2017-05-15T07:24:13.457Z,977.92
2017-05-15T07:25:17.277Z,977.89
2017-05-15T07:26:19.640Z,977.88
2017-05-15T07:27:22.005Z,977.85
2017-05-15T07:28:24.387Z,977.86
2017-05-15T07:29:26.750Z,977.82
2017-05-15T07:30:29.671Z,977.84
2017-05-15T07:31:32.034Z,977.86
2017-05-15T07:32:34.404Z,977.83
2017-05-15T07:33:36.777Z,977.81
2017-05-15T07:34:39.144Z,977.79
2017-05-15T07:35:42.106Z,977.77
2017-05-15T07:36:44.477Z,977.76
2017-05-15T07:37:46.852Z,977.78
2017-05-15T07:38:49.220Z,977.75
2017-05-15T07:39:51.588Z,977.75
2017-05-15T07:40:54.558Z,977.75
2017-05-15T07:41:56.930Z,977.72
2017-05-15T07:42:59.305Z,977.73
2017-05-15T07:44:01.670Z,977.67
2017-05-15T07:45:04.040Z,977.65
2017-05-15T07:46:07.010Z,977.66
2017-05-15T07:47:09.379Z,977.62
2017-05-15T07:48:11.742Z,977.64
2017-05-15T07:49:14.114Z,977.67
2017-05-15T07:50:16.480Z,977.66
2017-05-15T07:51:19.409Z,977.63
2017-05-15T07:52:21.773Z,977.64
2017-05-15T07:53:24.156Z,977.63
2017-05-15T07:54:26.520Z,977.60
2017-05-15T07:55:28.887Z,977.60
2017-05-15T07:56:31.855Z,977.55
2017-05-15T07:57:34.230Z,977.57
2017-05-15T07:58:36.593Z,977.57
2017-05-15T07:59:38.965Z,977.56
2017-05-15T08:00:41.326Z,977.55
2017-05-15T08:01:44.296Z,977.52
2017-05-15T08:02:46.672Z,977.51
2017-05-15T08:03:49.043Z,977.50
2017-05-15T08:04:51.408Z,977.48
2017-05-15T08:05:53.781Z,977.44
2017-05-15T08:06:56.758Z,977.45
2017-05-15T08:07:59.124Z,977.36
2017-05-15T08:09:01.498Z,977.39
2017-05-15T08:10:03.870Z,977.39
2017-05-15T08:11:06.247Z,977.38
2017-05-15T08:12:09.214Z,977.33
2017-05-15T08:13:11.584Z,977.34
2017-05-15T08:14:13.960Z,977.33
2017-05-15T08:15:16.328Z,977.29
2017-05-15T08:16:18.694Z,977.29
2017-05-15T08:17:21.672Z,977.28
2017-05-15T08:18:24.031Z,977.26
2017-05-15T08:19:26.401Z,977.28
2017-05-15T08:20:28.772Z,977.30
2017-05-15T08:21:31.142Z,977.30
2017-05-15T08:22:34.112Z,977.31
2017-05-15T08:23:36.471Z,977.33
2017-05-15T08:24:38.845Z,977.29
2017-05-15T08:25:41.207Z,977.32
2017-05-15T08:26:43.580Z,977.31
2017-05-15T08:27:46.549Z,977.35
2017-05-15T08:28:48.917Z,977.30
2017-05-15T08:29:51.290Z,977.34
2017-05-15T08:30:53.654Z,977.33
2017-05-15T08:31:56.021Z,977.36
2017-05-15T08:32:58.943Z,977.36
2017-05-15T08:34:01.323Z,977.38
2017-05-15T08:35:03.692Z,977.38
2017-05-15T08:36:06.065Z,977.36
2017-05-15T08:37:08.431Z,977.40
2017-05-15T08:38:11.404Z,977.36
2017-05-15T08:39:13.771Z,977.41
2017-05-15T08:40:16.132Z,977.41
2017-05-15T08:41:18.495Z,977.43
2017-05-15T08:42:20.868Z,977.41
2017-05-15T08:43:23.839Z,977.40
2017-05-15T08:44:26.197Z,977.39
2017-05-15T08:45:28.572Z,977.38
2017-05-15T08:46:30.947Z,977.36
2017-05-15T08:47:33.318Z,977.38
2017-05-15T08:48:36.287Z,977.36
2017-05-15T08:49:38.659Z,977.39
2017-05-15T08:50:41.032Z,977.38
2017-05-15T08:51:43.408Z,977.41
2017-05-15T08:52:45.757Z,977.36
2017-05-15T08:53:48.716Z,977.33
2017-05-15T08:54:51.077Z,977.31
2017-05-15T08:55:53.428Z,977.33
2017-05-15T08:56:55.775Z,977.35
2017-05-15T08:57:58.148Z,977.34
2017-05-15T08:59:01.048Z,977.32
2017-05-15T09:00:03.409Z,977.27
2017-05-15T09:01:05.766Z,977.32
2017-05-15T09:02:08.125Z,977.31
2017-05-15T09:03:10.477Z,977.32
2017-05-15T09:04:13.437Z,977.29
2017-05-15T09:05:15.797Z,977.27
2017-05-15T09:06:18.153Z,977.28
2017-05-15T09:07:20.508Z,977.28
2017-05-15T09:08:22.860Z,977.29
2017-05-15T09:09:25.851Z,977.31
2017-05-15T09:10:28.162Z,977.37
2017-05-15T09:11:30.522Z,977.37
2017-05-15T09:12:32.876Z,977.37
2017-05-15T09:13:35.233Z,977.38
2017-05-15T09:14:38.195Z,977.38
2017-05-15T09:15:40.563Z,977.35
2017-05-15T09:16:42.913Z,977.37
2017-05-15T09:17:45.272Z,977.42
2017-05-15T09:18:47.626Z,977.40
2017-05-15T09:19:50.531Z,977.42
2017-05-15T09:20:52.881Z,977.46
2017-05-15T09:21:55.227Z,977.46
2017-05-15T09:22:57.584Z,977.48
2017-05-15T09:23:59.936Z,977.46
2017-05-15T09:25:02.894Z,977.49
2017-05-15T09:26:05.256Z,977.48
2017-05-15T09:27:07.609Z,977.49
2017-05-15T09:28:09.968Z,977.51
2017-05-15T09:29:12.322Z,977.48
2017-05-15T09:30:15.286Z,977.50
2017-05-15T09:31:17.639Z,977.51
2017-05-15T09:32:19.990Z,977.48
2017-05-15T09:33:22.350Z,977.44
2017-05-15T09:34:24.708Z,977.46
2017-05-15T09:35:27.659Z,977.43
2017-05-15T09:36:30.208Z,977.47
2017-05-15T09:37:32.568Z,977.46
2017-05-15T09:38:34.918Z,977.42
2017-05-15T09:39:37.274Z,977.44
2017-05-15T09:40:40.224Z,977.44
2017-05-15T09:41:42.573Z,977.45
2017-05-15T09:42:44.930Z,977.46
2017-05-15T09:43:47.285Z,977.47
2017-05-15T09:44:49.635Z,977.49
2017-05-15T09:45:52.589Z,977.49
2017-05-15T09:46:54.951Z,977.50
2017-05-15T09:47:57.307Z,977.47
2017-05-15T09:48:59.656Z,977.48
2017-05-15T09:50:02.015Z,977.48
2017-05-15T09:51:04.978Z,977.46
2017-05-15T09:52:07.325Z,977.50
2017-05-15T09:53:09.682Z,977.51
2017-05-15T09:54:12.036Z,977.52
2017-05-15T09:55:14.398Z,977.52
2017-05-15T09:56:17.359Z,977.51
2017-05-15T09:57:19.703Z,977.56
2017-05-15T09:58:22.057Z,977.56
2017-05-15T09:59:24.416Z,977.55
2017-05-15T10:00:26.777Z,977.53
2017-05-15T10:01:29.736Z,977.55
2017-05-15T10:02:32.095Z,977.58
2017-05-15T10:03:34.449Z,977.56
2017-05-15T10:04:36.803Z,977.60
2017-05-15T10:05:39.146Z,977.58
2017-05-15T10:06:42.102Z,977.59
2017-05-15T10:07:44.460Z,977.59
2017-05-15T10:08:46.827Z,977.59
2017-05-15T10:09:49.178Z,977.58
2017-05-15T10:10:51.535Z,977.57
2017-05-15T10:11:54.486Z,977.56
2017-05-15T10:12:56.838Z,977.55
2017-05-15T10:13:59.196Z,977.50
2017-05-15T10:15:01.546Z,977.55
2017-05-15T10:16:03.905Z,977.57
2017-05-15T10:17:06.854Z,977.58
2017-05-15T10:18:09.208Z,977.56
2017-05-15T10:19:11.555Z,977.55
2017-05-15T10:20:13.912Z,977.57
2017-05-15T10:21:16.265Z,977.54
2017-05-15T10:22:19.231Z,977.54
2017-05-15T10:23:21.594Z,977.54
2017-05-15T10:24:23.948Z,977.53
2017-05-15T10:25:26.305Z,977.53
2017-05-15T10:26:28.661Z,977.52
2017-05-15T10:27:31.634Z,977.56
2017-05-15T10:28:33.977Z,977.54
2017-05-15T10:29:36.341Z,977.56
2017-05-15T10:30:38.690Z,977.57
2017-05-15T10:31:41.059Z,977.59
2017-05-15T10:32:44.003Z,977.56
2017-05-15T10:33:46.366Z,977.62
2017-05-15T10:34:48.719Z,977.58
2017-05-15T10:35:51.076Z,977.60
2017-05-15T10:36:53.430Z,977.63
2017-05-15T10:37:56.379Z,977.63
2017-05-15T10:38:58.934Z,977.68
2017-05-15T10:40:01.290Z,977.67
2017-05-15T10:41:03.637Z,977.75
2017-05-15T10:42:05.993Z,977.71
2017-05-15T10:43:08.955Z,977.78
2017-05-15T10:44:11.305Z,977.77
2017-05-15T10:45:13.657Z,977.77
2017-05-15T10:46:16.007Z,977.82
2017-05-15T10:47:18.381Z,977.81
2017-05-15T10:48:21.323Z,977.82
2017-05-15T10:49:23.696Z,977.82
2017-05-15T10:50:26.053Z,977.83
2017-05-15T10:51:28.403Z,977.85
2017-05-15T10:52:30.755Z,977.83
2017-05-15T10:53:33.717Z,977.86
2017-05-15T10:54:36.065Z,977.85
2017-05-15T10:55:38.434Z,977.90
2017-05-15T10:56:40.786Z,977.88
2017-05-15T10:57:43.147Z,977.92
2017-05-15T10:58:46.100Z,977.92
2017-05-15T10:59:48.471Z,977.92
2017-05-15T11:00:50.816Z,977.96
2017-05-15T11:01:53.166Z,977.97
2017-05-15T11:02:55.527Z,977.96
2017-05-15T11:03:58.432Z,977.97
2017-05-15T11:05:00.794Z,978.02
2017-05-15T11:06:03.341Z,978.05
2017-05-15T11:07:05.717Z,978.05
2017-05-15T11:08:08.063Z,978.05
2017-05-15T11:09:11.026Z,978.03
2017-05-15T11:10:13.377Z,978.02
2017-05-15T11:11:15.735Z,978.05
2017-05-15T11:12:18.089Z,978.03
2017-05-15T11:13:20.484Z,978.02
2017-05-15T11:14:23.408Z,978.02
2017-05-15T11:15:25.759Z,978.01
2017-05-15T11:16:28.117Z,978.04
2017-05-15T11:17:30.485Z,978.00
2017-05-15T11:18:32.840Z,978.02
2017-05-15T11:19:35.801Z,978.03
2017-05-15T11:20:38.164Z,978.07
2017-05-15T11:21:40.515Z,978.05
2017-05-15T11:22:42.862Z,978.07
2017-05-15T11:23:45.431Z,978.09
2017-05-15T11:24:48.333Z,978.14
2017-05-15T11:25:50.689Z,978.13
2017-05-15T11:26:53.038Z,978.17
2017-05-15T11:27:55.389Z,978.18
2017-05-15T11:28:57.740Z,978.24
2017-05-15T11:30:00.709Z,978.25
2017-05-15T11:31:03.061Z,978.27
2017-05-15T11:32:05.410Z,978.25
2017-05-15T11:33:07.769Z,978.28
2017-05-15T11:34:10.125Z,978.32
2017-05-15T11:35:13.083Z,978.35
2017-05-15T11:36:15.435Z,978.36
2017-05-15T11:37:17.804Z,978.34
2017-05-15T11:38:20.156Z,978.41
2017-05-15T11:39:22.514Z,978.39
2017-05-15T11:40:25.479Z,978.40
2017-05-15T11:41:27.826Z,978.41
2017-05-15T11:42:30.178Z,978.44
2017-05-15T11:43:32.533Z,978.44
2017-05-15T11:44:34.900Z,978.44
2017-05-15T11:45:37.858Z,978.47
2017-05-15T11:46:40.204Z,978.50
2017-05-15T11:47:42.561Z,978.49
2017-05-15T11:48:44.919Z,978.47
2017-05-15T11:49:47.284Z,978.49
2017-05-15T11:50:50.229Z,978.50
2017-05-15T11:51:52.590Z,978.48
2017-05-15T11:52:54.946Z,978.47
2017-05-15T11:53:57.295Z,978.52
2017-05-15T11:54:59.661Z,978.48
2017-05-15T11:56:02.621Z,978.53
2017-05-15T11:57:04.978Z,978.55
2017-05-15T11:58:07.381Z,978.55
2017-05-15T11:59:09.690Z,978.56
2017-05-15T12:00:12.049Z,978.57
2017-05-15T12:01:15.017Z,978.55
2017-05-15T12:02:17.380Z,978.57
2017-05-15T12:03:19.735Z,978.56
2017-05-15T12:04:22.094Z,978.59
2017-05-15T12:05:24.453Z,978.57
2017-05-15T12:06:27.422Z,978.61
2017-05-15T12:07:29.777Z,978.63
2017-05-15T12:08:32.138Z,978.62
2017-05-15T12:09:34.501Z,978.63
2017-05-15T12:10:36.865Z,978.68
2017-05-15T12:11:39.825Z,978.64
2017-05-15T12:12:42.177Z,978.71
2017-05-15T12:13:44.538Z,978.70
2017-05-15T12:14:46.898Z,978.70
2017-05-15T12:15:49.264Z,978.75
2017-05-15T12:16:52.172Z,978.75
2017-05-15T12:17:54.720Z,978.74
2017-05-15T12:18:57.094Z,978.75
2017-05-15T12:19:59.457Z,978.79
2017-05-15T12:21:01.811Z,978.82
2017-05-15T12:22:04.727Z,978.86
2017-05-15T12:23:07.084Z,978.84
2017-05-15T12:24:09.442Z,978.87
2017-05-15T12:25:11.800Z,978.89
2017-05-15T12:26:14.161Z,978.89
2017-05-15T12:27:17.111Z,978.92
2017-05-15T12:28:19.471Z,978.89
2017-05-15T12:29:21.828Z,978.92
2017-05-15T12:30:24.187Z,978.90
2017-05-15T12:31:26.551Z,978.89
2017-05-15T12:32:29.501Z,978.90
2017-05-15T12:33:31.861Z,978.92
2017-05-15T12:34:34.222Z,978.93
2017-05-15T12:35:36.587Z,978.98
2017-05-15T12:36:38.946Z,979.00
2017-05-15T12:37:41.906Z,979.02
2017-05-15T12:38:44.267Z,979.02
2017-05-15T12:39:46.619Z,979.04
2017-05-15T12:40:48.988Z,979.04
2017-05-15T12:41:51.347Z,979.10
2017-05-15T12:42:54.308Z,979.10
2017-05-15T12:43:56.672Z,979.18
2017-05-15T12:44:59.029Z,979.21
2017-05-15T12:46:01.398Z,979.23
2017-05-15T12:47:03.749Z,979.21
2017-05-15T12:48:06.713Z,979.22
2017-05-15T12:49:09.068Z,979.25
2017-05-15T12:50:11.429Z,979.28
2017-05-15T12:51:13.798Z,979.26
2017-05-15T12:52:16.162Z,979.28
2017-05-15T12:53:19.115Z,979.31
2017-05-15T12:54:21.480Z,979.31
2017-05-15T12:55:23.833Z,979.29
2017-05-15T12:56:26.200Z,979.32
2017-05-15T12:57:28.566Z,979.36
2017-05-15T12:58:31.525Z,979.37
2017-05-15T12:59:33.884Z,979.43
2017-05-15T13:00:36.258Z,979.40
2017-05-15T13:01:38.614Z,979.42
2017-05-15T13:02:40.988Z,979.44